Time;durP1;ratioP1;P1;durP2;ratioP2;P2;SDS_P1;SDS_P2;PMS_P1;PMS_P2;Temp;Humidity;BMP_temperature;BMP_pressure;BME280_temperature;BME280_humidity;BME280_pressure;Samples;Min_cycle;Max_cycle;Signal;HPM_P1;HPM_P2
2021/05/31 00:00:14;;;;;;;21.48;7.50;;;;;;;9.97;73.41;99446.73;2161896;82;21010;-61
2021/05/31 00:03:17;;;;;;;22.30;7.35;;;;;;;9.87;73.75;99447.20;2126646;83;21039;-60
2021/05/31 00:06:17;;;;;;;20.50;7.10;;;;;;;9.73;73.81;99442.25;2123574;83;21046;-64
2021/05/31 00:09:17;;;;;;;22.70;7.08;;;;;;;9.61;73.64;99435.36;2161853;82;21078;-63
2021/05/31 00:12:19;;;;;;;22.48;6.62;;;;;;;9.52;73.94;99435.77;2141035;83;21047;-62
2021/05/31 00:15:19;;;;;;;21.52;7.40;;;;;;;9.46;74.13;99438.69;2123300;83;21584;-63
2021/05/31 00:18:20;;;;;;;22.13;7.42;;;;;;;9.41;74.31;99439.34;2161909;82;20995;-61
2021/05/31 00:21:20;;;;;;;22.50;7.50;;;;;;;9.31;74.44;99442.41;2140934;82;21039;-61
2021/05/31 00:24:21;;;;;;;25.20;7.70;;;;;;;9.23;74.48;99447.60;2124270;84;20994;-60
2021/05/31 00:27:21;;;;;;;21.97;7.65;;;;;;;9.17;75.22;99438.27;2196242;81;20999;-59
2021/05/31 00:30:23;;;;;;;21.27;6.90;;;;;;;9.07;74.61;99440.44;2141413;83;21575;-60
2021/05/31 00:33:24;;;;;;;22.73;7.30;;;;;;;8.99;75.04;99440.80;2196095;81;21043;-63
2021/05/31 00:36:24;;;;;;;23.52;7.87;;;;;;;8.94;74.83;99428.36;2141061;82;21090;-60
2021/05/31 00:39:25;;;;;;;28.57;9.88;;;;;;;8.89;74.80;99428.17;2196108;81;20994;-60
2021/05/31 00:42:25;;;;;;;22.95;8.88;;;;;;;8.86;74.87;99430.94;2141226;82;20991;-63
2021/05/31 00:45:25;;;;;;;26.52;8.93;;;;;;;8.75;75.05;99436.63;2196274;81;21006;-60
2021/05/31 00:48:27;;;;;;;26.62;9.00;;;;;;;8.66;75.37;99428.72;2141194;82;21000;-61
2021/05/31 00:51:27;;;;;;;22.33;8.20;;;;;;;8.53;75.66;99436.24;2196442;81;21066;-60
2021/05/31 00:54:28;;;;;;;20.45;7.37;;;;;;;8.46;75.59;99436.98;2141287;82;21506;-63
2021/05/31 00:57:28;;;;;;;22.50;7.78;;;;;;;8.38;75.47;99435.58;2195992;81;21046;-59
2021/05/31 01:00:29;;;;;;;22.65;8.15;;;;;;;8.34;75.60;99430.92;2141037;82;21015;-64
2021/05/31 01:03:29;;;;;;;22.58;8.30;;;;;;;8.24;75.90;99432.23;2195849;81;21063;-63
2021/05/31 01:06:30;;;;;;;23.05;7.83;;;;;;;8.19;76.00;99427.20;2141334;82;21087;-59
2021/05/31 01:09:33;;;;;;;22.95;8.33;;;;;;;8.12;75.77;99428.37;2195955;81;20975;-66
2021/05/31 01:12:33;;;;;;;23.18;8.58;;;;;;;8.01;75.69;99430.56;2172829;81;21545;-63
2021/05/31 01:15:33;;;;;;;22.02;7.42;;;;;;;7.90;75.73;99430.98;2140994;82;21122;-66
2021/05/31 01:18:34;;;;;;;26.80;10.53;;;;;;;7.82;75.75;99434.38;2196069;81;21018;-66
2021/05/31 01:21:34;;;;;;;33.48;12.13;;;;;;;7.73;76.06;99437.75;2142512;82;21027;-65
2021/05/31 01:24:35;;;;;;;27.10;10.78;;;;;;;7.70;76.74;99433.09;2161877;82;21054;-66
2021/05/31 01:27:35;;;;;;;23.98;8.65;;;;;;;7.65;76.98;99432.44;2161971;82;21030;-66
2021/05/31 01:30:39;;;;;;;22.42;7.83;;;;;;;7.51;76.11;99429.89;2140716;83;21067;-66
2021/05/31 01:33:39;;;;;;;19.32;5.62;;;;;;;7.35;76.27;99436.62;2107635;84;21588;-66
2021/05/31 01:36:39;;;;;;;17.48;5.45;;;;;;;7.21;76.72;99430.17;2161796;82;21058;-66
2021/05/31 01:39:40;;;;;;;12.23;4.05;;;;;;;7.08;77.11;99424.99;2140694;83;21043;-61
2021/05/31 01:42:40;;;;;;;20.50;6.62;;;;;;;7.00;76.98;99427.89;2123430;83;21050;-61
2021/05/31 01:45:41;;;;;;;19.70;6.80;;;;;;;6.95;77.63;99429.81;2161819;82;21022;-59
2021/05/31 01:48:41;;;;;;;20.00;7.25;;;;;;;6.91;77.91;99429.52;2141035;83;21003;-64
2021/05/31 01:51:42;;;;;;;21.02;6.60;;;;;;;6.88;79.16;99428.33;2123613;83;21546;-66
2021/05/31 01:54:43;;;;;;;20.40;6.62;;;;;;;6.85;78.94;99424.10;2161803;82;21062;-65
2021/05/31 01:57:43;;;;;;;18.37;6.25;;;;;;;6.84;79.01;99431.52;2140649;83;21146;-65
2021/05/31 02:00:44;;;;;;;21.17;6.50;;;;;;;6.81;79.42;99436.84;2123262;83;21045;-66
2021/05/31 02:03:44;;;;;;;20.80;6.90;;;;;;;6.82;79.67;99432.47;2162165;82;21014;-66
2021/05/31 02:06:45;;;;;;;23.60;6.55;;;;;;;6.82;79.40;99428.56;2141147;83;20988;-65
2021/05/31 02:09:45;;;;;;;21.37;6.87;;;;;;;6.81;79.02;99426.42;2123637;83;21050;-65
2021/05/31 02:12:45;;;;;;;18.80;6.65;;;;;;;6.78;79.17;99419.14;2162158;82;20998;-66
2021/05/31 02:15:46;;;;;;;23.22;7.47;;;;;;;6.75;78.82;99416.19;2141103;83;21043;-66
2021/05/31 02:18:46;;;;;;;21.35;7.17;;;;;;;6.75;78.02;99418.80;2123731;83;21046;-65
2021/05/31 02:21:47;;;;;;;19.98;6.55;;;;;;;6.69;78.57;99425.08;2161240;82;21078;-64
2021/05/31 02:24:47;;;;;;;20.45;7.28;;;;;;;6.66;78.63;99419.97;2196179;81;21655;-65
2021/05/31 02:27:48;;;;;;;21.50;7.87;;;;;;;6.66;78.76;99425.66;2141575;82;21534;-66
2021/05/31 02:30:48;;;;;;;23.27;8.20;;;;;;;6.66;78.89;99416.53;2196113;81;21511;-66
2021/05/31 02:33:49;;;;;;;23.73;8.45;;;;;;;6.67;78.44;99418.23;2141205;82;21067;-65
2021/05/31 02:36:49;;;;;;;22.55;7.47;;;;;;;6.62;78.15;99414.93;2196199;81;21042;-65
2021/05/31 02:39:50;;;;;;;20.45;6.20;;;;;;;6.56;77.92;99416.00;2141273;82;21059;-63
2021/05/31 02:42:50;;;;;;;20.90;6.53;;;;;;;6.51;78.38;99412.25;2196236;81;20991;-65
2021/05/31 02:45:51;;;;;;;18.75;6.00;;;;;;;6.52;78.25;99411.36;2141299;82;20991;-65
2021/05/31 02:48:52;;;;;;;19.50;6.53;;;;;;;6.55;78.58;99415.59;2196325;81;21026;-66
2021/05/31 02:51:52;;;;;;;22.85;7.28;;;;;;;6.57;79.22;99415.94;2141257;82;21664;-64
2021/05/31 02:54:52;;;;;;;21.65;7.55;;;;;;;6.50;79.18;99408.40;2196210;81;21573;-65
2021/05/31 02:57:53;;;;;;;23.60;6.92;;;;;;;6.50;78.95;99412.31;2141170;82;20998;-63
2021/05/31 03:00:53;;;;;;;20.77;6.22;;;;;;;6.50;79.29;99408.40;2196099;81;21000;-66
2021/05/31 03:03:54;;;;;;;15.85;4.95;;;;;;;6.53;79.32;99418.25;2141377;82;21007;-65
2021/05/31 03:06:54;;;;;;;32.63;4.60;;;;;;;6.61;78.46;99417.13;2196085;80;21022;-65
2021/05/31 03:09:55;;;;;;;30.85;4.30;;;;;;;6.60;77.87;99412.38;2141457;82;21111;-65
2021/05/31 03:12:55;;;;;;;34.00;3.30;;;;;;;6.53;77.02;99418.25;2196216;81;21497;-65
2021/05/31 03:15:55;;;;;;;26.95;3.12;;;;;;;6.28;76.43;99419.56;2141143;82;21609;-65
2021/05/31 03:18:56;;;;;;;18.80;6.12;;;;;;;6.11;76.70;99421.89;2195890;81;21010;-65
2021/05/31 03:21:56;;;;;;;18.30;6.58;;;;;;;6.16;78.93;99423.88;2141378;82;21015;-65
2021/05/31 03:24:57;;;;;;;18.45;5.55;;;;;;;6.27;79.02;99425.67;2215073;80;21088;-65
2021/05/31 03:27:58;;;;;;;21.05;6.37;;;;;;;6.47;79.21;99422.84;2162536;82;21030;-65
2021/05/31 03:30:59;;;;;;;18.17;5.67;;;;;;;6.66;79.00;99421.28;2215494;80;21060;-59
2021/05/31 03:34:00;;;;;;;17.65;5.80;;;;;;;6.83;78.60;99427.20;2162464;82;21533;-63
2021/05/31 03:37:00;;;;;;;22.77;7.33;;;;;;;6.95;78.20;99423.29;2214942;80;21095;-65
2021/05/31 03:40:01;;;;;;;22.02;7.05;;;;;;;7.10;78.08;99417.98;2162408;82;20990;-59
2021/05/31 03:43:02;;;;;;;20.62;6.30;;;;;;;7.36;78.00;99413.53;2214943;80;21006;-59
2021/05/31 03:46:02;;;;;;;21.17;6.92;;;;;;;7.56;77.64;99415.38;2162577;82;21002;-60
2021/05/31 03:49:02;;;;;;;23.20;7.33;;;;;;;7.74;77.35;99417.70;2214922;80;21065;-59
2021/05/31 03:52:03;;;;;;;22.62;7.60;;;;;;;8.01;76.98;99407.89;2162702;82;21042;-60
2021/05/31 03:55:03;;;;;;;22.48;7.40;;;;;;;8.22;76.31;99413.16;2215146;80;21013;-60
2021/05/31 03:58:04;;;;;;;19.77;6.75;;;;;;;8.40;76.20;99414.13;2162836;82;21513;-61
2021/05/31 04:01:05;;;;;;;19.30;6.55;;;;;;;8.67;75.76;99401.66;2215023;80;21002;-62
2021/05/31 04:04:06;;;;;;;24.40;7.53;;;;;;;8.79;75.71;99404.19;2162923;82;21022;-61
2021/05/31 04:13:11;;;;;;;25.72;8.70;;;;;;;9.09;75.68;99404.56;2189485;80;20989;-60
2021/05/31 04:16:11;;;;;;;24.10;8.25;;;;;;;9.22;75.50;99408.78;2162431;82;21074;-62
2021/05/31 04:19:12;;;;;;;23.18;8.15;;;;;;;9.44;75.13;99411.70;2215166;80;21492;-60
2021/05/31 04:22:12;;;;;;;22.35;8.05;;;;;;;9.67;74.59;99404.94;2162391;82;21003;-62
2021/05/31 04:25:13;;;;;;;22.52;7.70;;;;;;;9.91;74.27;99409.05;2196214;81;21485;-63
2021/05/31 04:28:14;;;;;;;22.77;7.65;;;;;;;10.19;73.84;99409.38;2141222;82;21557;-61
2021/05/31 04:31:14;;;;;;;22.82;7.33;;;;;;;10.38;73.18;99411.95;2196006;81;21006;-61
2021/05/31 04:34:15;;;;;;;23.73;6.97;;;;;;;10.58;73.06;99408.78;2141094;82;21075;-60
2021/05/31 04:37:15;;;;;;;22.45;7.22;;;;;;;10.68;71.65;99406.05;2196129;81;21054;-60
2021/05/31 04:40:16;;;;;;;19.50;6.95;;;;;;;10.84;71.80;99412.66;2141169;82;21070;-60
2021/05/31 04:43:16;;;;;;;22.15;6.87;;;;;;;10.94;71.09;99413.50;2195901;81;21448;-62
2021/05/31 04:46:17;;;;;;;22.02;6.97;;;;;;;11.05;70.47;99404.11;2141313;82;21035;-65
2021/05/31 04:49:17;;;;;;;19.98;6.20;;;;;;;11.19;70.43;99405.13;2195838;81;21050;-60
2021/05/31 04:52:19;;;;;;;20.68;6.40;;;;;;;11.29;69.58;99399.76;2141302;82;21019;-64
2021/05/31 04:55:19;;;;;;;20.27;6.35;;;;;;;11.43;70.24;99393.75;2195979;81;21030;-64
2021/05/31 04:58:20;;;;;;;19.30;6.58;;;;;;;11.63;69.10;99396.58;2141207;83;21090;-65
2021/05/31 05:01:20;;;;;;;17.23;5.75;;;;;;;11.82;67.98;99401.63;2196231;81;21521;-64
2021/05/31 05:04:21;;;;;;;20.02;6.17;;;;;;;11.95;68.65;99397.87;2141046;83;21573;-65
2021/05/31 05:07:22;;;;;;;20.25;6.42;;;;;;;12.20;67.90;99397.30;2195891;81;21002;-66
2021/05/31 05:10:23;;;;;;;22.55;6.03;;;;;;;12.27;67.21;99394.69;2141294;82;21113;-65
2021/05/31 05:13:23;;;;;;;18.37;5.62;;;;;;;12.35;66.53;99396.86;2196118;81;20987;-65
2021/05/31 05:16:24;;;;;;;18.75;5.92;;;;;;;12.47;65.21;99393.52;2141205;82;21003;-66
2021/05/31 05:19:24;;;;;;;19.32;5.62;;;;;;;12.64;65.82;99396.45;2196023;81;20991;-61
2021/05/31 05:22:24;;;;;;;18.17;5.58;;;;;;;12.80;64.19;99396.36;2141164;82;20960;-60
2021/05/31 05:25:25;;;;;;;19.60;5.78;;;;;;;12.94;64.77;99399.92;2192614;81;21047;-60
2021/05/31 05:28:25;;;;;;;19.32;5.35;;;;;;;13.02;63.20;99399.47;2125894;83;21051;-63
2021/05/31 05:31:26;;;;;;;17.40;4.87;;;;;;;13.22;65.03;99399.06;2192782;81;21007;-63
2021/05/31 05:34:27;;;;;;;17.35;4.92;;;;;;;13.40;62.16;99401.02;2125933;83;21011;-62
2021/05/31 05:37:30;;;;;;;20.50;5.45;;;;;;;13.45;61.05;99388.89;2192832;81;21078;-60
2021/05/31 05:40:54;;;;;;;;;;;;;;;13.55;62.07;99393.08;2172219;81;21534;-61
2021/05/31 05:46:42;;;;;;;16.85;4.80;;;;;;;13.79;61.60;99396.78;2169789;81;21022;-62
2021/05/31 05:49:36;;;;;;;;;;;;;;;14.12;60.02;99403.88;2172447;81;21058;-61
2021/05/31 05:52:37;;;;;;;14.20;4.25;;;;;;;14.33;60.10;99397.16;2192849;81;20187;-62
2021/05/31 05:58:40;;;;;;;;;;;;;;;14.55;58.79;99399.20;2172375;81;21098;-65
2021/05/31 06:01:41;;;;;;;14.73;3.87;;;;;;;14.79;57.81;99404.25;2192821;81;20171;-65
2021/05/31 06:04:41;;;;;;;16.05;4.37;;;;;;;14.92;57.50;99398.47;2126170;83;21553;-65
2021/05/31 06:07:42;;;;;;;12.63;3.70;;;;;;;15.20;55.92;99392.55;2192805;81;21102;-61
2021/05/31 06:10:43;;;;;;;15.10;3.70;;;;;;;15.39;56.64;99394.74;2126179;83;21007;-64
2021/05/31 06:13:43;;;;;;;11.50;3.37;;;;;;;15.50;55.99;99394.81;2192819;81;21006;-66
2021/05/31 06:16:43;;;;;;;11.12;3.45;;;;;;;15.62;55.43;99391.75;2126179;83;21047;-65
2021/05/31 06:19:44;;;;;;;13.58;3.62;;;;;;;15.62;52.12;99393.56;2193041;81;21050;-64
2021/05/31 06:22:44;;;;;;;14.58;3.70;;;;;;;15.53;53.25;99388.44;2126841;82;21612;-65
2021/05/31 06:25:45;;;;;;;11.50;3.50;;;;;;;15.67;54.57;99390.91;2215050;80;21555;-65
2021/05/31 06:28:46;;;;;;;15.50;3.40;;;;;;;15.90;53.57;99393.70;2162602;82;21059;-64
2021/05/31 06:31:46;;;;;;;12.47;3.67;;;;;;;15.97;53.17;99384.84;2215180;80;21026;-65
2021/05/31 06:34:47;;;;;;;11.83;3.47;;;;;;;15.96;52.23;99386.66;2162686;82;21045;-65
2021/05/31 06:37:47;;;;;;;16.52;3.52;;;;;;;16.05;52.29;99386.45;2215264;80;21045;-65
2021/05/31 06:40:48;;;;;;;13.98;3.58;;;;;;;15.97;53.74;99386.17;2162444;82;21065;-62
2021/05/31 06:43:49;;;;;;;10.78;3.35;;;;;;;16.15;52.89;99386.12;2215247;80;21034;-63
2021/05/31 06:46:50;;;;;;;8.65;2.80;;;;;;;16.12;49.56;99390.32;2162402;82;21022;-65
2021/05/31 06:49:51;;;;;;;9.43;2.50;;;;;;;16.22;52.00;99386.02;2215366;80;21009;-65
2021/05/31 06:52:52;;;;;;;7.58;2.50;;;;;;;16.44;49.24;99402.42;2162751;82;21528;-66
2021/05/31 06:55:52;;;;;;;9.93;2.45;;;;;;;15.92;47.83;99402.39;2215221;80;21057;-66
2021/05/31 06:58:53;;;;;;;11.75;2.95;;;;;;;15.64;47.76;99385.02;2162558;82;21098;-65
2021/05/31 07:01:53;;;;;;;12.68;2.77;;;;;;;15.59;50.39;99390.16;2215010;80;21042;-66
2021/05/31 07:04:54;;;;;;;9.13;2.70;;;;;;;15.86;50.23;99391.78;2162730;82;20986;-66
2021/05/31 07:07:54;;;;;;;9.30;2.65;;;;;;;16.06;48.80;99387.66;2215336;80;21009;-63
2021/05/31 07:10:57;;;;;;;10.00;2.70;;;;;;;16.41;47.99;99388.59;2162799;82;21053;-64
2021/05/31 07:14:00;;;;;;;8.78;2.75;;;;;;;16.16;47.57;99387.81;2215088;80;21030;-63
2021/05/31 07:17:00;;;;;;;;;;;;;;;16.62;48.84;99387.41;2192078;80;21017;-62
2021/05/31 07:20:01;;;;;;;7.08;2.40;;;;;;;16.87;44.15;99373.59;2215095;80;20147;-66
2021/05/31 07:23:02;;;;;;;11.68;2.62;;;;;;;16.87;44.67;99388.17;2162222;82;21018;-64
2021/05/31 07:26:02;;;;;;;8.18;2.35;;;;;;;16.77;44.60;99374.80;2196113;81;21042;-62
2021/05/31 07:29:02;;;;;;;9.45;2.40;;;;;;;16.72;43.60;99375.63;2141317;83;21082;-62
2021/05/31 07:32:03;;;;;;;9.70;2.30;;;;;;;16.73;43.21;99374.67;2196214;81;20991;-62
2021/05/31 07:35:03;;;;;;;6.42;2.37;;;;;;;16.73;42.91;99383.45;2141215;82;21510;-62
2021/05/31 07:38:04;;;;;;;5.45;2.30;;;;;;;16.69;42.13;99372.72;2196188;81;20971;-65
2021/05/31 07:41:04;;;;;;;11.10;2.50;;;;;;;16.88;44.21;99370.00;2141128;83;21087;-64
2021/05/31 07:44:05;;;;;;;7.10;2.05;;;;;;;17.25;41.90;99365.75;2196289;81;21002;-66
2021/05/31 07:47:05;;;;;;;7.08;2.37;;;;;;;17.38;41.63;99374.89;2141489;82;21562;-66
2021/05/31 07:50:06;;;;;;;9.40;2.37;;;;;;;17.51;44.58;99357.50;2195871;81;21141;-66
2021/05/31 07:53:06;;;;;;;8.95;2.42;;;;;;;17.59;40.56;99361.21;2141069;82;21059;-66
2021/05/31 07:56:07;;;;;;;9.93;2.17;;;;;;;17.79;40.96;99357.42;2196166;81;21038;-65
2021/05/31 07:59:07;;;;;;;7.08;1.92;;;;;;;17.52;40.41;99363.17;2141439;82;21058;-66
2021/05/31 08:02:08;;;;;;;7.42;2.00;;;;;;;17.62;38.39;99363.61;2196168;81;21061;-65
2021/05/31 08:05:08;;;;;;;6.08;1.70;;;;;;;17.61;40.87;99354.45;2141479;82;21620;-66
2021/05/31 08:08:08;;;;;;;8.98;2.25;;;;;;;17.59;38.06;99367.02;2196034;81;21497;-66
2021/05/31 08:11:09;;;;;;;6.22;2.33;;;;;;;17.37;40.58;99359.48;2141108;82;21011;-66
2021/05/31 08:14:09;;;;;;;7.55;2.27;;;;;;;16.91;38.52;99351.20;2196024;81;21067;-66
2021/05/31 08:17:10;;;;;;;7.05;2.02;;;;;;;16.96;41.39;99350.38;2141311;82;21075;-65
2021/05/31 08:20:11;;;;;;;7.62;2.35;;;;;;;17.10;39.55;99355.41;2195947;81;21124;-66
2021/05/31 08:23:11;;;;;;;7.03;2.20;;;;;;;17.66;38.31;99346.48;2141476;82;20979;-66
2021/05/31 08:26:11;;;;;;;9.53;2.10;;;;;;;17.33;38.67;99350.58;2214273;80;21552;-67
2021/05/31 08:29:12;;;;;;;9.13;2.20;;;;;;;17.38;40.49;99352.35;2214782;80;21500;-66
2021/05/31 08:32:12;;;;;;;10.20;2.10;;;;;;;17.82;40.53;99346.55;2214669;80;21018;-66
2021/05/31 08:35:13;;;;;;;7.03;2.12;;;;;;;17.77;39.24;99348.72;2214608;80;21006;-65
2021/05/31 08:38:13;;;;;;;4.40;2.00;;;;;;;18.30;39.27;99338.59;2161827;82;21010;-66
2021/05/31 08:41:14;;;;;;;6.92;2.02;;;;;;;18.48;38.52;99332.20;2140722;83;21066;-65
2021/05/31 08:44:15;;;;;;;5.60;2.00;;;;;;;18.10;35.83;99342.94;2123659;83;21038;-66
2021/05/31 08:47:15;;;;;;;9.65;1.92;;;;;;;17.63;38.98;99343.25;2162120;82;21568;-65
2021/05/31 08:50:17;;;;;;;12.07;1.90;;;;;;;17.78;38.97;99335.33;2140680;83;21166;-66
2021/05/31 08:53:18;;;;;;;10.03;2.37;;;;;;;17.45;35.93;99349.06;2123528;84;21033;-67
2021/05/31 08:56:18;;;;;;;5.17;2.02;;;;;;;16.92;38.83;99348.92;2161923;82;21105;-67
2021/05/31 08:59:19;;;;;;;7.47;2.08;;;;;;;16.58;37.83;99347.09;2141008;83;21518;-65
2021/05/31 09:02:23;;;;;;;11.33;2.10;;;;;;;16.63;38.15;99351.53;2107471;84;21808;-62
2021/05/31 09:05:23;;;;;;;10.53;2.20;;;;;;;16.84;37.35;99348.19;2161914;82;21010;-62
2021/05/31 09:08:23;;;;;;;7.83;1.90;;;;;;;17.06;37.75;99347.34;2140727;83;21011;-63
2021/05/31 09:11:26;;;;;;;4.45;1.82;;;;;;;16.67;38.57;99342.05;2123419;83;21125;-63
2021/05/31 09:14:26;;;;;;;;;;;;;;;16.49;37.75;99348.28;2164474;82;21529;-64
2021/05/31 09:17:27;;;;;;;6.60;1.80;;;;;;;16.34;38.29;99346.34;2161876;82;20230;-62
2021/05/31 09:20:27;;;;;;;7.97;1.77;;;;;;;16.44;38.18;99341.53;2140917;83;21039;-61
2021/05/31 09:23:28;;;;;;;9.70;2.47;;;;;;;17.31;41.25;99337.41;2123371;83;21046;-65
2021/05/31 09:26:28;;;;;;;7.80;1.90;;;;;;;17.54;37.38;99344.85;2161773;82;21054;-61
2021/05/31 09:29:29;;;;;;;7.28;2.10;;;;;;;17.16;37.70;99336.86;2140777;83;21526;-64
2021/05/31 09:32:30;;;;;;;6.53;2.08;;;;;;;17.03;37.68;99331.70;2123334;83;21034;-65
2021/05/31 09:35:30;;;;;;;6.95;2.12;;;;;;;16.88;38.63;99333.77;2161812;82;21023;-62
2021/05/31 09:38:31;;;;;;;6.97;2.05;;;;;;;16.75;38.85;99331.21;2140786;83;21024;-65
2021/05/31 09:41:32;;;;;;;8.58;2.00;;;;;;;16.87;38.02;99322.77;2123878;83;21061;-62
2021/05/31 09:44:33;;;;;;;5.92;2.20;;;;;;;17.70;38.64;99319.23;2161694;82;21633;-63
2021/05/31 09:47:34;;;;;;;8.93;2.02;;;;;;;18.77;36.92;99304.43;2140810;83;21043;-62
2021/05/31 09:50:34;;;;;;;6.75;1.85;;;;;;;18.99;36.71;99303.90;2123354;83;21019;-65
2021/05/31 09:53:35;;;;;;;7.33;2.02;;;;;;;18.65;34.71;99308.17;2161832;82;21065;-64
2021/05/31 09:56:35;;;;;;;8.15;2.30;;;;;;;17.95;35.72;99307.42;2140944;83;21126;-63
2021/05/31 09:59:36;;;;;;;8.20;2.20;;;;;;;17.56;37.32;99311.08;2123453;83;21018;-65
2021/05/31 10:05:46;;;;;;;6.30;2.10;;;;;;;17.11;37.47;99317.81;2141018;83;21154;-62
2021/05/31 10:08:41;;;;;;;7.28;2.12;;;;;;;17.08;36.50;99320.26;2107472;84;21564;-62
2021/05/31 10:11:41;;;;;;;5.92;2.12;;;;;;;17.20;38.30;99317.09;2161701;82;21078;-64
2021/05/31 10:14:43;;;;;;;6.53;2.02;;;;;;;17.55;37.10;99307.23;2140811;83;21011;-65
2021/05/31 10:17:44;;;;;;;;;;;;;;;18.08;36.75;99306.41;2125989;83;21055;-66
2021/05/31 10:20:44;;;;;;;4.83;2.40;;;;;;;18.79;36.88;99306.48;2161696;82;20497;-63
2021/05/31 10:23:45;;;;;;;8.95;2.67;;;;;;;18.58;36.34;99316.33;2140858;82;21003;-63
2021/05/31 10:26:45;;;;;;;7.45;2.80;;;;;;;18.10;37.11;99311.08;2123474;83;21055;-65
2021/05/31 10:29:46;;;;;;;6.80;2.80;;;;;;;18.58;37.30;99308.36;2161990;82;20979;-63
2021/05/31 10:32:46;;;;;;;8.80;2.85;;;;;;;18.95;37.13;99298.50;2140972;83;21010;-66
2021/05/31 10:35:47;;;;;;;12.53;3.22;;;;;;;18.64;38.67;99299.84;2123613;83;21078;-66
2021/05/31 10:38:50;;;;;;;10.43;2.70;;;;;;;17.88;37.86;99314.19;2161920;82;21201;-62
2021/05/31 10:41:50;;;;;;;10.65;3.20;;;;;;;17.29;38.82;99310.20;2126966;83;21070;-66
2021/05/31 10:44:51;;;;;;;5.78;2.83;;;;;;;16.95;39.66;99307.61;2123516;83;21600;-67
2021/05/31 10:47:54;;;;;;;11.43;2.80;;;;;;;16.86;39.64;99303.03;2161911;82;21046;-67
2021/05/31 10:50:58;;;;;;;9.03;3.00;;;;;;;16.94;39.85;99305.45;2141158;83;21534;-66
2021/05/31 10:53:57;;;;;;;11.00;3.10;;;;;;;17.10;40.30;99301.58;2107897;84;21007;-66
2021/05/31 10:56:57;;;;;;;14.47;2.95;;;;;;;17.30;40.13;99298.14;2162123;82;21580;-66
2021/05/31 10:59:58;;;;;;;8.88;2.95;;;;;;;17.59;40.23;99296.73;2141026;83;21530;-66
2021/05/31 11:02:59;;;;;;;8.55;2.90;;;;;;;17.71;39.35;99290.38;2123361;84;21549;-66
2021/05/31 11:05:59;;;;;;;9.38;2.90;;;;;;;17.73;39.49;99293.77;2162039;82;21157;-66
2021/05/31 11:09:00;;;;;;;12.18;2.85;;;;;;;17.71;39.32;99296.19;2140913;83;20987;-65
2021/05/31 11:12:01;;;;;;;16.40;3.02;;;;;;;17.48;38.62;99298.92;2123753;83;20983;-67
2021/05/31 11:15:02;;;;;;;9.50;2.80;;;;;;;17.29;38.11;99295.62;2162084;82;21529;-67
2021/05/31 11:18:03;;;;;;;9.40;2.90;;;;;;;17.43;39.90;99289.20;2140886;83;21150;-67
2021/05/31 11:21:04;;;;;;;11.70;3.15;;;;;;;18.43;39.46;99286.13;2123621;83;20994;-67
2021/05/31 11:24:04;;;;;;;7.55;2.60;;;;;;;19.17;37.59;99274.84;2162218;82;21074;-67
2021/05/31 11:27:05;;;;;;;9.70;2.60;;;;;;;19.02;37.31;99279.70;2141447;83;21047;-66
2021/05/31 11:30:05;;;;;;;8.80;2.58;;;;;;;18.68;38.40;99281.34;2124042;84;21514;-67
2021/05/31 11:33:05;;;;;;;15.63;2.98;;;;;;;18.23;37.21;99278.56;2195994;80;21636;-67
2021/05/31 11:36:06;;;;;;;10.68;2.58;;;;;;;17.86;38.66;99288.28;2141234;82;21035;-67
2021/05/31 11:39:07;;;;;;;11.43;3.17;;;;;;;17.61;38.07;99283.70;2195914;81;20994;-67
2021/05/31 11:42:07;;;;;;;9.38;2.90;;;;;;;17.53;38.79;99280.84;2141529;82;21045;-65
2021/05/31 11:45:08;;;;;;;9.65;2.98;;;;;;;17.47;38.35;99294.12;2196047;81;21015;-64
2021/05/31 11:48:08;;;;;;;7.40;2.70;;;;;;;17.26;38.57;99291.90;2141346;82;21079;-65
2021/05/31 11:51:09;;;;;;;6.85;2.35;;;;;;;17.11;37.78;99287.34;2196149;81;21533;-66
2021/05/31 11:54:12;;;;;;;13.93;2.83;;;;;;;16.97;39.15;99286.66;2141359;82;21506;-66
2021/05/31 11:57:12;;;;;;;9.63;2.37;;;;;;;16.96;37.76;99288.11;2172768;81;21014;-66
2021/05/31 12:00:12;;;;;;;7.85;2.52;;;;;;;17.02;37.42;99282.30;2141284;82;21617;-67
2021/05/31 12:03:12;;;;;;;11.40;2.80;;;;;;;17.39;38.02;99269.20;2195932;81;21011;-67
2021/05/31 12:06:13;;;;;;;7.12;2.72;;;;;;;17.94;36.36;99283.67;2141122;82;21010;-66
2021/05/31 12:09:13;;;;;;;12.25;2.75;;;;;;;18.90;36.46;99267.02;2195999;81;21012;-67
2021/05/31 12:12:14;;;;;;;8.43;2.60;;;;;;;19.41;33.92;99265.14;2141479;82;21027;-67
2021/05/31 12:15:16;;;;;;;8.60;2.30;;;;;;;19.53;32.33;99248.55;2196037;80;21023;-67
2021/05/31 12:18:19;;;;;;;7.47;2.00;;;;;;;19.47;32.23;99266.41;2141174;82;21007;-67
2021/05/31 12:21:19;;;;;;;7.30;2.55;;;;;;;19.45;34.06;99258.57;2172670;81;20999;-67
2021/05/31 12:24:20;;;;;;;7.65;2.40;;;;;;;19.11;32.90;99256.80;2141446;82;21004;-67
2021/05/31 12:27:20;;;;;;;6.55;2.40;;;;;;;18.74;33.62;99254.72;2192611;80;21070;-68
2021/05/31 12:30:22;;;;;;;12.13;2.60;;;;;;;18.58;34.43;99262.70;2126041;83;21589;-67
2021/05/31 12:33:22;;;;;;;10.55;2.60;;;;;;;18.67;33.86;99253.91;2192689;81;21110;-65
2021/05/31 12:36:23;;;;;;;8.13;2.87;;;;;;;19.22;33.25;99242.02;2125798;83;20999;-67
2021/05/31 12:39:23;;;;;;;16.10;3.17;;;;;;;20.01;31.70;99240.16;2192405;81;21142;-68
2021/05/31 12:42:23;;;;;;;9.00;2.67;;;;;;;20.19;31.73;99240.27;2125920;83;21032;-63
2021/05/31 12:45:24;;;;;;;9.88;2.40;;;;;;;19.46;32.54;99242.94;2192758;81;20983;-63
2021/05/31 12:48:26;;;;;;;8.93;2.62;;;;;;;19.19;33.26;99247.14;2125898;83;21019;-62
2021/05/31 12:51:26;;;;;;;5.25;2.35;;;;;;;18.73;33.46;99243.73;2192772;81;21026;-63
2021/05/31 12:54:27;;;;;;;5.15;2.17;;;;;;;18.73;33.46;99243.73;2126151;83;21094;-66
2021/05/31 12:57:27;;;;;;;10.23;2.62;;;;;;;18.75;32.65;99242.62;2192491;81;21058;-63
2021/05/31 13:00:29;;;;;;;7.20;2.50;;;;;;;18.59;32.79;99244.94;2126041;83;20999;-62
2021/05/31 13:03:30;;;;;;;7.28;2.58;;;;;;;18.83;32.74;99245.92;2192730;81;21022;-64
2021/05/31 13:06:30;;;;;;;12.50;2.37;;;;;;;19.28;31.48;99237.49;2126052;83;20979;-66
2021/05/31 13:09:31;;;;;;;8.43;2.58;;;;;;;19.81;30.30;99230.91;2192465;81;21122;-65
2021/05/31 13:12:32;;;;;;;9.48;2.50;;;;;;;20.34;31.75;99225.97;2125919;83;21038;-68
2021/05/31 13:15:32;;;;;;;7.33;2.45;;;;;;;20.92;32.60;99226.20;2192973;81;21067;-66
2021/05/31 13:18:33;;;;;;;8.80;2.72;;;;;;;21.28;31.06;99227.55;2126162;83;21012;-67
2021/05/31 13:21:34;;;;;;;8.95;2.42;;;;;;;21.28;31.17;99227.55;2192804;81;21664;-67
2021/05/31 13:24:34;;;;;;;9.35;2.30;;;;;;;20.30;31.10;99237.90;2126291;83;20987;-67
2021/05/31 13:27:35;;;;;;;4.55;1.90;;;;;;;19.33;29.44;99233.91;2195968;80;21027;-66
2021/05/31 13:30:35;;;;;;;6.35;2.35;;;;;;;18.98;30.24;99233.13;2141007;82;21123;-66
2021/05/31 13:33:36;;;;;;;4.35;1.80;;;;;;;18.53;31.42;99244.98;2195963;81;21042;-65
2021/05/31 13:36:36;;;;;;;8.33;2.50;;;;;;;18.17;31.88;99240.57;2141112;82;21003;-63
2021/05/31 13:39:37;;;;;;;11.48;2.77;;;;;;;17.98;32.23;99243.97;2196081;81;21030;-64
2021/05/31 13:42:38;;;;;;;11.60;2.50;;;;;;;17.85;32.66;99238.83;2141508;82;21019;-63
2021/05/31 13:45:39;;;;;;;6.72;2.30;;;;;;;18.06;32.07;99234.88;2196060;81;21003;-62
2021/05/31 13:48:40;;;;;;;6.05;2.30;;;;;;;19.11;31.74;99223.56;2141218;82;21517;-68
2021/05/31 13:51:41;;;;;;;6.80;2.08;;;;;;;19.94;32.22;99227.94;2195913;81;21137;-67
2021/05/31 13:54:41;;;;;;;9.28;2.27;;;;;;;19.55;29.91;99227.48;2141265;82;20998;-66
2021/05/31 13:57:42;;;;;;;9.25;2.20;;;;;;;19.14;31.72;99247.21;2196148;81;21057;-67
2021/05/31 14:00:43;;;;;;;12.00;2.98;;;;;;;18.77;32.75;99229.20;2141716;82;21067;-67
2021/05/31 14:03:43;;;;;;;10.98;2.33;;;;;;;18.49;31.41;99240.94;2196294;81;21505;-67
2021/05/31 14:06:44;;;;;;;7.30;2.02;;;;;;;18.45;32.50;99235.05;2141333;82;21079;-67
2021/05/31 14:09:44;;;;;;;12.65;2.60;;;;;;;18.40;31.99;99239.07;2196119;81;20990;-67
2021/05/31 14:12:45;;;;;;;9.28;2.40;;;;;;;18.31;32.06;99239.39;2141188;82;21019;-67
2021/05/31 14:15:46;;;;;;;8.20;2.45;;;;;;;18.63;32.46;99230.41;2196194;81;21114;-67
2021/05/31 14:18:46;;;;;;;8.10;2.50;;;;;;;18.83;31.71;99231.30;2141414;82;21050;-68
2021/05/31 14:21:47;;;;;;;7.72;2.20;;;;;;;18.79;31.41;99228.56;2196253;81;21069;-67